Time;durP1;ratioP1;P1;durP2;ratioP2;P2;SDS_P1;SDS_P2;PMS_P1;PMS_P2;Temp;Humidity;BMP_temperature;BMP_pressure;BME280_temperature;BME280_humidity;BME280_pressure;Samples;Min_cycle;Max_cycle;Signal;HPM_P1;HPM_P2
2022/06/03 00:02:24;;;;;;;10.67;9.23;;;;;;;;;;1601731;87;21790;-73
2022/06/03 00:05:06;;;;;;;11.47;10.03;;;;;;;;;;1632274;85;21066;-72
2022/06/03 00:08:27;;;;;;;9.97;8.90;;;;;;;18.13;83.01;100810.48;1596606;88;22937;-72
2022/06/03 00:11:32;;;;;;;11.90;9.78;;;;;;;18.14;82.91;100812.63;1617378;87;21777;-72
2022/06/03 00:14:16;;;;;;;14.93;10.27;;;;;;;18.13;82.79;100821.30;1581523;88;21256;-74
2022/06/03 00:17:11;;;;;;;14.77;9.87;;;;;;;18.12;82.63;100817.52;1601922;88;21844;-74
2022/06/03 00:20:24;;;;;;;11.60;10.10;;;;;;;18.05;82.13;100817.38;1622117;86;21722;-73
2022/06/03 00:23:18;;;;;;;13.27;9.07;;;;;;;18.05;82.13;100817.38;1604841;87;21042;-73
2022/06/03 00:26:32;;;;;;;10.73;8.77;;;;;;;18.02;81.80;100809.06;1624602;86;21937;-73
2022/06/03 00:29:32;;;;;;;12.10;9.57;;;;;;;17.97;81.67;100805.12;1568757;89;21861;-71
2022/06/03 00:32:21;;;;;;;11.67;9.70;;;;;;;17.91;81.56;100816.58;1595294;88;22370;-73
2022/06/03 00:35:22;;;;;;;12.63;10.07;;;;;;;17.88;81.64;100817.73;1625505;86;21829;-73
2022/06/03 00:38:07;;;;;;;11.43;9.58;;;;;;;17.83;81.82;100816.45;1625203;86;21835;-71
2022/06/03 00:40:54;;;;;;;13.53;11.13;;;;;;;17.79;81.98;100823.81;1625072;86;21085;-73
2022/06/03 00:44:06;;;;;;;12.43;11.13;;;;;;;17.76;82.08;100823.05;1624542;86;23256;-72
2022/06/03 00:47:08;;;;;;;13.08;11.78;;;;;;;17.75;82.19;100832.79;1557894;88;21931;-72
2022/06/03 00:50:15;;;;;;;14.40;11.47;;;;;;;17.70;82.37;100830.17;1620672;86;21263;-73
2022/06/03 00:53:04;;;;;;;12.43;11.13;;;;;;;17.68;82.65;100843.19;1622731;86;22176;-74
2022/06/03 00:55:52;;;;;;;15.90;12.63;;;;;;;17.66;82.81;100849.43;1624688;86;21799;-73
2022/06/03 00:58:58;;;;;;;14.37;12.50;;;;;;;17.61;82.87;100853.03;1597857;88;22361;-71
2022/06/03 01:01:42;;;;;;;14.17;12.67;;;;;;;17.59;82.84;100853.31;1623910;86;21791;-73
2022/06/03 01:04:47;;;;;;;14.53;12.13;;;;;;;17.57;82.85;100852.83;1600436;88;22184;-72
2022/06/03 01:07:42;;;;;;;14.80;13.20;;;;;;;17.56;82.79;100857.16;1622563;86;22266;-72
2022/06/03 01:10:37;;;;;;;13.93;12.43;;;;;;;17.52;82.73;100862.34;1626174;86;21818;-72
2022/06/03 01:13:21;;;;;;;13.53;12.17;;;;;;;17.51;82.75;100874.81;1599380;88;22348;-73
2022/06/03 01:16:18;;;;;;;14.70;12.87;;;;;;;17.50;82.83;100872.64;1595142;88;21847;-73
2022/06/03 01:19:10;;;;;;;15.67;13.17;;;;;;;17.50;82.85;100867.79;1624703;86;21790;-72
2022/06/03 01:22:36;;;;;;;15.25;13.40;;;;;;;17.49;82.85;100866.98;1623495;86;21786;-72
2022/06/03 01:25:10;;;;;;;14.77;13.27;;;;;;;17.50;82.86;100869.14;1623074;86;21077;-73
2022/06/03 01:27:54;;;;;;;15.57;13.67;;;;;;;17.50;82.81;100863.73;1624965;86;21755;-72
2022/06/03 01:30:31;;;;;;;15.53;14.03;;;;;;;17.47;82.83;100865.67;1574750;86;22241;-72
2022/06/03 01:33:39;;;;;;;15.43;13.83;;;;;;;17.46;82.59;100878.38;1586549;86;22405;-73
2022/06/03 01:36:17;;;;;;;14.87;13.47;;;;;;;17.45;82.44;100874.64;1625939;86;22328;-72
2022/06/03 01:39:17;;;;;;;14.67;13.23;;;;;;;17.43;82.44;100884.37;1599960;87;22303;-72
2022/06/03 01:42:16;;;;;;;15.97;14.27;;;;;;;17.43;82.41;100897.87;1622472;85;21806;-73
2022/06/03 01:45:06;;;;;;;15.83;14.33;;;;;;;17.39;82.32;100882.02;1622439;87;21803;-73
2022/06/03 01:48:06;;;;;;;16.43;14.83;;;;;;;17.41;82.27;100889.84;1598301;88;21828;-72
2022/06/03 01:50:55;;;;;;;16.63;14.97;;;;;;;17.40;81.98;100908.46;1624152;86;22370;-73
2022/06/03 01:54:02;;;;;;;16.80;15.20;;;;;;;17.38;81.69;100907.42;1602111;88;21804;-73
2022/06/03 01:56:59;;;;;;;16.97;15.37;;;;;;;17.37;81.59;100909.84;1623065;86;21683;-73
2022/06/03 01:59:36;;;;;;;18.03;16.33;;;;;;;17.37;81.46;100922.00;1623219;86;21667;-73
2022/06/03 02:02:55;;;;;;;17.87;16.03;;;;;;;17.39;81.37;100922.52;1599989;87;21804;-73
2022/06/03 02:05:29;;;;;;;16.97;15.40;;;;;;;17.40;81.27;100925.45;1625069;86;21823;-73
2022/06/03 02:08:04;;;;;;;19.03;17.00;;;;;;;17.41;81.15;100928.98;1605810;88;21848;-72
2022/06/03 02:10:56;;;;;;;18.73;16.83;;;;;;;17.40;80.88;100934.91;1624130;86;21883;-72
2022/06/03 02:13:56;;;;;;;18.77;16.97;;;;;;;17.40;80.67;100934.91;1625890;86;21828;-72
2022/06/03 02:16:34;;;;;;;18.60;16.87;;;;;;;17.36;80.39;100943.35;1624948;86;21803;-73
2022/06/03 02:19:32;;;;;;;18.63;16.73;;;;;;;17.34;80.48;100945.53;1624148;85;21825;-73
2022/06/03 02:22:32;;;;;;;18.10;16.20;;;;;;;17.33;80.20;100939.88;1626561;86;21740;-71
2022/06/03 02:25:31;;;;;;;17.97;16.13;;;;;;;17.33;79.95;100938.53;1627332;85;21805;-72
2022/06/03 02:28:46;;;;;;;17.97;16.27;;;;;;;17.32;79.89;100943.69;1595264;88;21871;-72
2022/06/03 02:31:46;;;;;;;16.97;15.40;;;;;;;17.30;79.57;100942.61;1622369;86;21828;-73
2022/06/03 02:35:02;;;;;;;17.20;15.67;;;;;;;17.28;79.19;100938.63;1591271;86;21784;-72
2022/06/03 02:37:43;;;;;;;16.07;14.57;;;;;;;17.27;79.11;100950.50;1623911;86;21865;-72
2022/06/03 02:40:48;;;;;;;15.60;14.20;;;;;;;17.28;79.16;100962.92;1620508;86;21760;-73
2022/06/03 02:43:29;;;;;;;14.70;13.20;;;;;;;17.27;79.08;100958.59;1599358;88;21800;-72
2022/06/03 02:46:37;;;;;;;16.40;13.67;;;;;;;17.25;78.68;100962.16;1618188;85;21790;-73
2022/06/03 02:49:56;;;;;;;14.20;12.90;;;;;;;17.22;78.63;100955.44;1595846;87;21775;-73
2022/06/03 02:52:37;;;;;;;14.70;12.97;;;;;;;17.21;78.66;100961.94;1621201;86;21949;-73
2022/06/03 02:55:40;;;;;;;13.77;12.40;;;;;;;17.19;78.39;100958.72;1601306;88;21809;-72
2022/06/03 02:58:34;;;;;;;13.77;12.27;;;;;;;17.17;78.36;100952.00;1624737;86;21823;-73
2022/06/03 03:01:27;;;;;;;12.90;11.70;;;;;;;17.15;78.14;100962.30;1625824;86;21809;-73
2022/06/03 03:04:11;;;;;;;12.97;11.67;;;;;;;17.15;78.17;100971.75;1598718;88;21819;-71
2022/06/03 03:07:26;;;;;;;13.33;11.93;;;;;;;17.13;78.09;100978.77;1588858;86;22376;-73
2022/06/03 03:10:15;;;;;;;13.90;12.50;;;;;;;17.11;78.04;100980.42;1608042;87;22967;-73
2022/06/03 03:13:16;;;;;;;12.70;11.50;;;;;;;17.10;78.01;100999.03;1601209;88;21708;-73
2022/06/03 03:16:34;;;;;;;12.45;11.28;;;;;;;17.08;77.99;101001.23;1623734;86;21719;-75
2022/06/03 03:19:48;;;;;;;18.70;11.13;;;;;;;17.07;77.56;100982.07;1622151;87;21532;-72
2022/06/03 03:22:54;;;;;;;12.17;10.20;;;;;;;17.01;77.03;101002.67;1599066;88;21809;-72
2022/06/03 03:25:53;;;;;;;12.87;10.50;;;;;;;16.95;76.59;101003.84;1619844;86;21754;-73
2022/06/03 03:28:44;;;;;;;10.87;9.80;;;;;;;16.92;76.53;101007.12;1624101;86;21841;-72
2022/06/03 03:31:37;;;;;;;10.70;9.60;;;;;;;16.91;76.47;101017.63;1619977;86;21718;-71
2022/06/03 03:34:30;;;;;;;10.93;9.90;;;;;;;16.91;76.22;101017.63;1623559;86;21072;-73
2022/06/03 03:37:31;;;;;;;13.43;10.10;;;;;;;16.91;76.21;101033.27;1600569;88;21941;-73
2022/06/03 03:40:24;;;;;;;10.48;9.43;;;;;;;16.92;76.24;101032.20;1598876;87;21869;-72
2022/06/03 03:43:09;;;;;;;11.50;10.37;;;;;;;16.94;76.20;101035.40;1600450;88;21564;-72
2022/06/03 03:46:32;;;;;;;11.00;9.97;;;;;;;16.97;76.36;101040.77;1625522;86;21850;-72
2022/06/03 03:49:33;;;;;;;11.97;10.77;;;;;;;16.98;76.41;101041.84;1625076;86;21816;-73
2022/06/03 03:52:14;;;;;;;10.67;9.57;;;;;;;17.00;76.31;101046.39;1600995;88;21713;-72
2022/06/03 03:55:15;;;;;;;11.68;10.03;;;;;;;16.98;75.83;101051.81;1628971;86;21766;-73
2022/06/03 03:58:28;;;;;;;10.82;9.73;;;;;;;16.98;75.92;101052.64;1600133;88;21124;-72
2022/06/03 04:01:06;;;;;;;9.90;8.90;;;;;;;16.97;75.88;101050.22;1550853;87;21258;-72
2022/06/03 04:03:45;;;;;;;9.47;8.57;;;;;;;16.92;75.57;101052.44;1622526;87;21877;-71
2022/06/03 04:06:31;;;;;;;10.70;9.60;;;;;;;16.89;75.43;101057.06;1623676;86;21772;-72
2022/06/03 04:09:13;;;;;;;10.00;9.10;;;;;;;16.83;75.51;101053.60;1622283;86;21765;-72
2022/06/03 04:12:08;;;;;;;9.90;8.90;;;;;;;16.84;75.59;101067.34;1599882;87;23047;-72
2022/06/03 04:15:07;;;;;;;10.80;9.67;;;;;;;16.84;75.67;101063.30;1625610;86;21622;-71
2022/06/03 04:18:04;;;;;;;10.07;9.07;;;;;;;16.86;75.62;101069.77;1623484;86;21758;-72
2022/06/03 04:20:50;;;;;;;9.40;8.40;;;;;;;16.93;75.53;101072.13;1579290;86;21855;-72
2022/06/03 04:23:51;;;;;;;9.20;8.30;;;;;;;16.97;75.38;101074.50;1603356;86;22294;-72
2022/06/03 04:26:38;;;;;;;8.97;8.20;;;;;;;17.00;75.12;101085.52;1630556;86;21895;-72
2022/06/03 04:29:49;;;;;;;8.87;8.03;;;;;;;17.05;74.86;101090.87;1626013;86;21877;-71
2022/06/03 04:32:24;;;;;;;9.55;8.58;;;;;;;17.16;74.70;101091.56;1600277;88;21880;-71
2022/06/03 04:35:30;;;;;;;9.17;8.23;;;;;;;17.33;74.19;101082.43;1622679;87;21383;-72
2022/06/03 04:38:11;;;;;;;7.93;7.23;;;;;;;17.48;73.75;101082.80;1567644;87;21771;-72
2022/06/03 04:41:03;;;;;;;7.97;7.17;;;;;;;17.61;71.79;101081.83;1624498;86;21076;-72
2022/06/03 04:43:58;;;;;;;7.83;7.03;;;;;;;17.61;71.79;101081.83;1620850;86;21674;-72
2022/06/03 04:47:20;;;;;;;8.10;7.30;;;;;;;17.57;71.62;101091.03;1599978;88;21113;-72
2022/06/03 04:50:19;;;;;;;7.83;7.00;;;;;;;17.51;71.53;101091.67;1624722;86;21742;-71
2022/06/03 04:53:32;;;;;;;7.57;6.87;;;;;;;17.47;71.42;101099.27;1611995;85;21131;-72
2022/06/03 04:56:21;;;;;;;8.00;7.03;;;;;;;17.41;71.25;101104.52;1622097;86;21079;-72
2022/06/03 04:59:20;;;;;;;9.40;8.30;;;;;;;17.35;71.33;101116.71;1627012;86;21870;-72
2022/06/03 05:02:44;;;;;;;8.57;7.77;;;;;;;17.37;71.62;101116.41;1622988;86;21107;-72
2022/06/03 05:05:45;;;;;;;8.50;7.73;;;;;;;17.40;71.58;101122.58;1621817;86;22408;-73
2022/06/03 05:08:30;;;;;;;8.10;7.30;;;;;;;17.50;70.79;101121.10;1622839;86;21610;-73
2022/06/03 05:11:38;;;;;;;7.97;6.80;;;;;;;17.58;70.85;101121.83;1601681;88;20982;-72
2022/06/03 05:14:26;;;;;;;7.60;6.90;;;;;;;17.58;70.85;101121.83;1625631;86;21084;-73
2022/06/03 05:17:27;;;;;;;7.17;6.13;;;;;;;17.65;70.50;101125.52;1623746;85;21429;-73
2022/06/03 05:20:19;;;;;;;7.67;6.80;;;;;;;17.68;70.10;101131.70;1596476;88;21103;-72
2022/06/03 05:23:30;;;;;;;7.73;7.03;;;;;;;17.72;69.73;101138.67;1642956;85;21181;-73
2022/06/03 05:26:24;;;;;;;7.00;6.33;;;;;;;17.68;68.99;101143.05;1567055;89;21097;-73
2022/06/03 05:29:01;;;;;;;8.07;6.90;;;;;;;17.64;68.70;101146.88;1591333;88;21067;-72
2022/06/03 05:31:57;;;;;;;7.70;6.90;;;;;;;17.65;68.41;101157.14;1626047;86;21086;-73
2022/06/03 05:35:01;;;;;;;7.83;6.70;;;;;;;17.67;68.30;101154.94;1624638;86;20952;-72
2022/06/03 05:37:53;;;;;;;7.80;7.00;;;;;;;17.77;68.26;101164.31;1623856;85;21276;-72
2022/06/03 05:41:07;;;;;;;7.10;6.40;;;;;;;17.95;68.08;101167.56;1598847;88;21541;-73
2022/06/03 05:43:56;;;;;;;7.10;5.80;;;;;;;18.15;67.88;101173.78;1617775;86;21149;-72
2022/06/03 05:46:37;;;;;;;6.53;5.87;;;;;;;18.37;67.26;101179.41;1606614;87;21077;-73
2022/06/03 05:49:33;;;;;;;7.33;5.65;;;;;;;18.41;66.55;101180.41;1625327;86;21097;-73
2022/06/03 05:52:37;;;;;;;6.73;6.03;;;;;;;18.29;65.87;101192.22;1621903;86;21832;-73
2022/06/03 05:55:28;;;;;;;6.13;5.53;;;;;;;18.07;65.97;101184.72;1620576;86;21090;-72
2022/06/03 05:58:29;;;;;;;6.85;6.15;;;;;;;17.98;66.28;101198.62;1622982;85;27112;-72
2022/06/03 06:01:16;;;;;;;7.10;6.40;;;;;;;18.01;66.33;101182.63;1626770;86;21370;-71
2022/06/03 06:03:57;;;;;;;7.37;5.73;;;;;;;18.09;66.47;101192.52;1613745;86;21627;-72
2022/06/03 06:06:42;;;;;;;;;;;;;;;18.18;65.98;101186.16;1632856;85;21664;-72
2022/06/03 06:09:29;;;;;;;6.07;5.50;;;;;;;18.25;65.62;101188.50;1626994;86;21265;-73
2022/06/03 06:12:28;;;;;;;6.27;5.67;;;;;;;18.33;65.36;101194.62;1621681;86;21220;-72
2022/06/03 06:15:26;;;;;;;5.53;4.93;;;;;;;18.42;65.10;101181.22;1598177;88;21192;-74
2022/06/03 06:18:15;;;;;;;5.63;5.13;;;;;;;18.50;64.52;101173.80;1550723;90;21687;-73
2022/06/03 06:21:06;;;;;;;6.33;5.43;;;;;;;18.54;63.73;101186.18;1605313;86;21793;-73
2022/06/03 06:23:43;;;;;;;5.27;4.77;;;;;;;18.60;62.97;101193.13;1628555;86;21160;-73
2022/06/03 06:26:24;;;;;;;5.30;4.40;;;;;;;18.67;62.45;101191.64;1622961;86;21020;-72
2022/06/03 06:29:27;;;;;;;5.20;4.70;;;;;;;18.72;62.01;101187.53;1622884;86;21144;-72
2022/06/03 06:32:30;;;;;;;6.20;4.40;;;;;;;18.78;61.65;101182.82;1624863;86;21065;-74
2022/06/03 06:35:36;;;;;;;4.17;3.77;;;;;;;18.84;61.61;101177.58;1622784;86;21294;-73
2022/06/03 06:38:32;;;;;;;4.43;3.57;;;;;;;18.96;61.03;101184.68;1629295;86;21109;-73
2022/06/03 06:41:25;;;;;;;5.77;3.97;;;;;;;19.08;60.29;101181.48;1622352;86;21378;-73
2022/06/03 06:44:22;;;;;;;6.00;3.87;;;;;;;19.16;59.75;101179.45;1620527;86;21073;-73
2022/06/03 06:47:00;;;;;;;3.90;3.50;;;;;;;19.18;58.88;101194.03;1622177;86;21084;-72
2022/06/03 06:49:43;;;;;;;4.90;4.03;;;;;;;19.19;58.61;101186.97;1586526;88;21152;-73
2022/06/03 06:52:24;;;;;;;4.27;3.50;;;;;;;19.26;59.18;101192.00;1627701;86;21002;-73
2022/06/03 06:55:08;;;;;;;4.00;3.60;;;;;;;19.32;58.45;101182.67;1600965;87;21105;-73
2022/06/03 06:57:44;;;;;;;6.30;3.50;;;;;;;19.42;58.58;101189.80;1638123;85;21068;-73
2022/06/03 07:00:27;;;;;;;6.50;3.50;;;;;;;19.57;57.96;101188.68;1642437;85;21463;-73
2022/06/03 07:03:40;;;;;;;4.37;3.50;;;;;;;19.62;56.30;101186.67;1625185;86;22357;-73
2022/06/03 07:06:25;;;;;;;4.87;3.50;;;;;;;19.63;56.42;101192.89;1631761;86;21637;-72
2022/06/03 07:09:09;;;;;;;4.70;3.40;;;;;;;19.66;56.44;101199.09;1602338;87;21030;-72
2022/06/03 07:11:54;;;;;;;8.53;3.53;;;;;;;19.72;55.64;101211.45;1621960;86;21156;-72
2022/06/03 07:14:28;;;;;;;4.47;3.30;;;;;;;19.77;55.19;101204.55;1625264;86;21065;-73
2022/06/03 07:20:05;;;;;;;4.80;3.20;;;;;;;19.83;54.07;101218.25;1625786;86;21004;-73
2022/06/03 07:22:52;;;;;;;3.73;2.90;;;;;;;19.82;53.22;101207.16;1598373;88;21174;-72
2022/06/03 07:25:48;;;;;;;4.17;3.40;;;;;;;19.81;53.13;101206.09;1625308;86;21087;-73
2022/06/03 07:28:39;;;;;;;3.97;3.03;;;;;;;19.82;53.05;101192.81;1625052;86;21056;-74
2022/06/03 07:31:44;;;;;;;5.60;3.40;;;;;;;19.93;53.22;101205.59;1623013;86;21225;-74
2022/06/03 07:34:29;;;;;;;5.73;3.00;;;;;;;20.01;52.54;101211.67;1625120;86;21081;-73
2022/06/03 07:37:13;;;;;;;4.90;3.00;;;;;;;20.04;51.36;101194.77;1600787;88;21034;-73
2022/06/03 07:40:24;;;;;;;3.97;2.77;;;;;;;20.03;50.68;101193.96;1625269;86;21107;-73
2022/06/03 07:43:22;;;;;;;4.93;3.00;;;;;;;19.97;50.83;101195.73;1623642;86;21138;-73
2022/06/03 07:46:00;;;;;;;4.43;3.23;;;;;;;19.98;51.09;101205.50;1623098;85;21149;-74
2022/06/03 07:48:29;;;;;;;5.20;2.97;;;;;;;20.02;51.13;101196.99;1587563;87;21212;-73
2022/06/03 07:51:31;;;;;;;3.70;2.87;;;;;;;20.07;51.61;101196.34;1622418;86;21578;-73
2022/06/03 07:53:59;;;;;;;5.33;2.90;;;;;;;20.12;50.64;101198.12;1622210;86;21112;-74
2022/06/03 07:56:28;;;;;;;4.05;3.20;;;;;;;20.12;50.46;101199.48;1625407;86;27259;-72
2022/06/03 07:59:00;;;;;;;4.50;2.87;;;;;;;20.09;50.61;101200.09;1613802;87;21301;-72
2022/06/03 08:01:42;;;;;;;4.47;2.90;;;;;;;20.10;50.77;101211.17;1627194;86;21159;-72
2022/06/03 08:04:15;;;;;;;3.87;2.70;;;;;;;20.13;50.75;101211.92;1621012;86;21025;-72
2022/06/03 08:12:15;;;;;;;4.90;3.07;;;;;;;20.34;49.96;101215.00;1624355;86;21279;-73
2022/06/03 08:14:42;;;;;;;5.00;3.30;;;;;;;20.50;49.74;101216.77;1619176;87;21057;-71
2022/06/03 08:17:09;;;;;;;5.93;3.10;;;;;;;20.65;49.84;101208.86;1622516;86;21105;-73
2022/06/03 08:19:37;;;;;;;3.93;2.80;;;;;;;20.78;49.21;101207.43;1625211;85;21208;-73
2022/06/03 08:22:08;;;;;;;4.10;2.93;;;;;;;20.88;48.42;101205.02;1626439;86;21048;-72
2022/06/03 08:24:40;;;;;;;4.42;3.10;;;;;;;20.97;48.91;101207.80;1626494;86;21513;-72
2022/06/03 08:27:15;;;;;;;4.13;2.93;;;;;;;21.14;48.45;101207.08;1627568;86;21101;-73
2022/06/03 08:29:48;;;;;;;6.03;3.50;;;;;;;21.23;46.66;101206.01;1650954;85;21464;-74
2022/06/03 08:32:19;;;;;;;5.40;3.67;;;;;;;21.28;46.59;101214.56;1648247;85;21061;-73
2022/06/03 08:34:51;;;;;;;6.67;3.10;;;;;;;21.31;46.95;101209.30;1622958;86;21078;-72
2022/06/03 08:37:23;;;;;;;4.50;3.23;;;;;;;21.42;46.25;101227.55;1622316;85;21268;-72
2022/06/03 08:39:54;;;;;;;5.67;3.17;;;;;;;21.50;46.22;101227.33;1626550;87;21102;-71
2022/06/03 08:42:49;;;;;;;4.50;2.80;;;;;;;21.54;45.96;101222.30;1627233;86;21038;-73
2022/06/03 08:45:42;;;;;;;3.57;2.77;;;;;;;21.61;45.50;101225.91;1627925;87;21045;-74
2022/06/03 08:48:14;;;;;;;4.57;2.80;;;;;;;21.74;45.45;101222.27;1628038;87;21203;-73
2022/06/03 08:50:49;;;;;;;3.55;2.67;;;;;;;21.83;44.73;101227.74;1628493;87;21093;-72
2022/06/03 08:53:25;;;;;;;4.13;2.83;;;;;;;21.84;44.50;101239.42;1637491;87;21007;-72
2022/06/03 08:55:59;;;;;;;3.97;2.60;;;;;;;21.86;44.11;101235.83;1640300;87;21643;-72
2022/06/03 08:59:01;;;;;;;4.73;2.43;;;;;;;21.93;43.60;101255.20;1637323;86;21552;-72
2022/06/03 09:01:42;;;;;;;3.20;2.67;;;;;;;21.95;43.35;101243.45;1628455;88;21469;-73
2022/06/03 09:04:24;;;;;;;3.65;2.40;;;;;;;22.03;43.20;101250.02;1658117;85;21904;-70
2022/06/03 09:07:25;;;;;;;4.57;2.40;;;;;;;22.09;42.65;101246.84;1641843;86;21020;-72
2022/06/03 09:10:13;;;;;;;3.73;2.33;;;;;;;22.13;41.94;101249.16;1631077;87;21037;-73
2022/06/03 09:13:00;;;;;;;4.07;2.20;;;;;;;22.17;41.82;101240.62;1628952;88;21133;-72
2022/06/03 09:15:31;;;;;;;3.53;2.40;;;;;;;22.22;41.91;101247.84;1630751;86;20971;-73
2022/06/03 09:18:06;;;;;;;3.00;2.30;;;;;;;22.30;41.44;101250.33;1631395;88;21156;-72
2022/06/03 09:20:45;;;;;;;3.87;2.20;;;;;;;22.36;41.25;101254.49;1612275;89;21079;-72
2022/06/03 09:23:18;;;;;;;3.10;2.47;;;;;;;22.41;41.28;101252.98;1626274;86;21046;-72
2022/06/03 09:25:50;;;;;;;4.13;2.60;;;;;;;22.44;41.98;101256.41;1626633;86;21663;-72
2022/06/03 09:28:25;;;;;;;3.10;2.33;;;;;;;22.51;41.50;101251.84;1630021;86;21061;-72
2022/06/03 09:30:52;;;;;;;4.20;2.50;;;;;;;22.58;41.18;101252.18;1612300;87;21789;-72
2022/06/03 09:33:21;;;;;;;3.20;2.27;;;;;;;22.61;41.62;101264.59;1612245;87;21021;-71
2022/06/03 09:35:49;;;;;;;4.03;2.33;;;;;;;22.67;40.72;101249.70;1615124;87;21021;-72
2022/06/03 09:38:18;;;;;;;3.50;2.00;;;;;;;22.73;40.60;101255.76;1615301;87;21153;-72
2022/06/03 09:40:47;;;;;;;3.23;2.20;;;;;;;22.79;39.49;101249.59;1591746;87;21571;-72
2022/06/03 09:43:25;;;;;;;3.90;2.27;;;;;;;22.86;39.50;101252.62;1614137;87;22216;-73
2022/06/03 09:45:55;;;;;;;3.60;2.40;;;;;;;22.91;39.18;101262.00;1613677;87;21041;-72
2022/06/03 09:48:28;;;;;;;3.67;2.20;;;;;;;22.93;39.69;101253.78;1607323;88;21133;-72
2022/06/03 09:50:58;;;;;;;2.77;2.10;;;;;;;23.01;39.33;101259.53;1607092;87;21077;-72
2022/06/03 09:53:30;;;;;;;3.73;2.63;;;;;;;23.07;38.85;101252.22;1608056;87;21158;-72
2022/06/03 09:55:58;;;;;;;4.10;2.23;;;;;;;23.12;39.33;101251.23;1606725;87;22123;-73
2022/06/03 09:58:32;;;;;;;3.50;2.27;;;;;;;23.16;39.49;101253.00;1608429;87;21078;-73
2022/06/03 10:00:59;;;;;;;2.43;2.23;;;;;;;23.23;40.08;101253.04;1607240;87;21572;-72
2022/06/03 10:03:26;;;;;;;3.23;2.30;;;;;;;23.35;39.74;101266.80;1608625;87;21525;-72
2022/06/03 10:05:56;;;;;;;3.47;2.40;;;;;;;23.44;38.86;101259.95;1608363;87;21005;-72
2022/06/03 10:08:28;;;;;;;3.07;2.00;;;;;;;23.44;38.30;101252.58;1605222;87;21133;-71
2022/06/03 10:13:43;;;;;;;3.23;2.07;;;;;;;23.46;39.42;101252.23;1606919;87;21615;-72
2022/06/03 10:16:12;;;;;;;5.43;2.00;;;;;;;23.60;39.51;101256.36;1622364;86;21061;-72
2022/06/03 10:18:50;;;;;;;2.67;2.10;;;;;;;23.71;37.05;101253.28;1606445;88;21061;-73
2022/06/03 10:21:20;;;;;;;2.50;1.90;;;;;;;23.70;37.37;101258.52;1617077;87;22223;-72
2022/06/03 10:23:56;;;;;;;2.20;1.83;;;;;;;23.66;36.62;101252.89;1619288;86;21466;-72
2022/06/03 10:26:29;;;;;;;4.97;2.10;;;;;;;23.69;36.95;101249.53;1605405;88;21049;-72
2022/06/03 10:28:58;;;;;;;2.93;2.07;;;;;;;23.72;37.50;101249.42;1607576;88;21069;-72
2022/06/03 10:31:31;;;;;;;3.93;2.10;;;;;;;23.75;37.05;101252.28;1609037;88;21604;-72
2022/06/03 10:34:03;;;;;;;2.27;1.70;;;;;;;23.72;36.69;101249.42;1611477;87;21168;-71
2022/06/03 10:36:38;;;;;;;5.87;2.10;;;;;;;23.73;36.96;101249.67;1615220;87;21139;-72
2022/06/03 10:39:06;;;;;;;6.03;2.30;;;;;;;23.73;37.33;101251.04;1613814;88;21690;-73
2022/06/03 10:41:40;;;;;;;2.27;1.70;;;;;;;23.77;36.74;101239.70;1608018;87;21073;-73
2022/06/03 10:44:18;;;;;;;3.07;1.80;;;;;;;23.82;36.38;101240.31;1606699;88;21026;-73
2022/06/03 10:47:05;;;;;;;5.30;1.87;;;;;;;23.94;36.65;101240.95;1607273;88;21180;-72
2022/06/03 10:49:38;;;;;;;2.27;1.60;;;;;;;24.01;35.69;101241.22;1606984;88;21215;-71
2022/06/03 11:03:29;;;;;;;2.10;1.73;;;;;;;24.14;35.62;101231.75;1610407;86;21086;-72
2022/06/03 11:05:56;;;;;;;2.23;1.63;;;;;;;24.20;36.57;101227.70;1614851;87;21573;-73
2022/06/03 11:08:24;;;;;;;2.77;1.70;;;;;;;24.28;34.96;101233.64;1613651;87;21106;-72
2022/06/03 11:10:54;;;;;;;1.93;1.50;;;;;;;24.34;35.23;101233.67;1613797;87;21069;-73
2022/06/03 11:13:38;;;;;;;3.47;1.80;;;;;;;24.44;35.96;101231.93;1614938;87;21141;-71
2022/06/03 11:16:22;;;;;;;2.83;1.60;;;;;;;24.52;34.74;101222.09;1591203;88;21100;-74
2022/06/03 11:18:49;;;;;;;2.07;1.50;;;;;;;24.51;34.82;101225.39;1615433;87;21142;-73
2022/06/03 11:21:22;;;;;;;1.97;1.60;;;;;;;24.54;34.71;101228.78;1614938;88;21104;-72
2022/06/03 11:23:51;;;;;;;2.63;1.87;;;;;;;24.43;34.92;101232.28;1615473;87;21120;-74
2022/06/03 11:26:17;;;;;;;2.43;1.47;;;;;;;24.38;34.94;101237.33;1615043;87;21228;-74
2022/06/03 11:28:52;;;;;;;1.80;1.47;;;;;;;24.37;35.00;101233.58;1615217;87;21060;-72
2022/06/03 11:31:26;;;;;;;2.80;1.50;;;;;;;24.33;34.57;101228.78;1615209;87;21575;-72
2022/06/03 11:34:01;;;;;;;1.53;1.40;;;;;;;24.37;34.60;101229.48;1615667;87;21508;-72
2022/06/03 11:36:42;;;;;;;2.10;1.40;;;;;;;24.37;35.32;101220.72;1615126;87;21038;-72
2022/06/03 11:39:42;;;;;;;2.87;1.60;;;;;;;24.40;34.65;101215.96;1613674;87;21117;-72
2022/06/03 11:42:34;;;;;;;3.47;1.73;;;;;;;24.40;35.28;101219.27;1612842;88;21781;-72
2022/06/03 11:45:12;;;;;;;2.63;1.60;;;;;;;24.45;34.65;101217.70;1612959;88;21037;-71
2022/06/03 11:47:56;;;;;;;2.53;1.67;;;;;;;24.47;34.97;101220.34;1613078;88;21037;-72
2022/06/03 11:50:26;;;;;;;5.27;1.60;;;;;;;24.51;34.29;101222.66;1589268;89;21541;-72
2022/06/03 11:52:55;;;;;;;1.93;1.40;;;;;;;24.54;34.43;101209.67;1589951;89;20975;-71
2022/06/03 11:55:24;;;;;;;1.77;1.30;;;;;;;24.60;34.40;101201.28;1612739;88;21050;-72
2022/06/03 11:58:20;;;;;;;1.77;1.33;;;;;;;24.65;34.78;101203.24;1615243;87;21045;-73
2022/06/03 12:00:52;;;;;;;2.93;1.40;;;;;;;24.73;33.98;101196.09;1615160;87;21671;-73
2022/06/03 12:03:42;;;;;;;1.70;1.30;;;;;;;24.70;34.49;101191.30;1615440;88;21141;-72
2022/06/03 12:06:20;;;;;;;2.33;1.37;;;;;;;24.72;33.57;101188.47;1615198;87;21669;-72
2022/06/03 12:08:58;;;;;;;2.50;1.33;;;;;;;24.78;34.03;101194.52;1612565;87;21679;-73
2022/06/03 12:14:47;;;;;;;3.13;1.33;;;;;;;24.92;34.08;101197.73;1615247;87;21165;-71
2022/06/03 12:17:19;;;;;;;1.50;1.10;;;;;;;25.00;33.36;101192.72;1590642;87;21521;-72
2022/06/03 12:19:50;;;;;;;1.63;1.00;;;;;;;25.09;33.76;101191.83;1615513;87;21266;-73
2022/06/03 12:22:31;;;;;;;3.00;1.40;;;;;;;25.15;32.96;101183.10;1602967;87;21061;-74
2022/06/03 12:25:01;;;;;;;2.05;1.20;;;;;;;25.17;32.25;101193.14;1614664;87;22443;-73
2022/06/03 12:27:38;;;;;;;2.30;1.23;;;;;;;25.20;31.78;101182.86;1605450;87;21187;-73
2022/06/03 12:30:19;;;;;;;1.87;1.30;;;;;;;25.24;31.44;101178.91;1614911;87;21117;-72
2022/06/03 12:33:02;;;;;;;1.27;1.10;;;;;;;25.29;31.29;101172.40;1615433;88;21602;-72
2022/06/03 12:35:52;;;;;;;2.77;1.23;;;;;;;25.30;31.28;101173.41;1614234;87;21086;-72
2022/06/03 12:38:26;;;;;;;2.30;1.30;;;;;;;25.34;31.37;101177.66;1614965;87;21047;-72
2022/06/03 12:40:57;;;;;;;3.03;1.40;;;;;;;25.28;31.52;101174.91;1615303;87;21039;-72
2022/06/03 12:43:48;;;;;;;1.80;1.30;;;;;;;25.25;32.56;101170.92;1615498;87;21592;-72
2022/06/03 12:46:42;;;;;;;2.83;1.33;;;;;;;25.32;32.88;101168.98;1599550;88;21086;-71
2022/06/03 12:49:25;;;;;;;2.30;1.27;;;;;;;25.45;32.57;101173.30;1615075;88;21565;-72
2022/06/03 12:52:03;;;;;;;2.30;1.33;;;;;;;25.56;31.66;101176.37;1613011;88;20991;-72
2022/06/03 12:54:31;;;;;;;1.63;1.30;;;;;;;25.63;31.01;101186.16;1615381;88;21613;-73
2022/06/03 12:57:10;;;;;;;1.73;1.30;;;;;;;25.61;30.19;101171.47;1613488;88;21419;-74
2022/06/03 12:59:57;;;;;;;3.07;1.17;;;;;;;25.58;30.35;101176.25;1618494;87;21512;-73
2022/06/03 13:02:30;;;;;;;1.80;1.27;;;;;;;25.56;29.65;101174.42;1641816;86;21569;-73
2022/06/03 13:05:03;;;;;;;3.33;1.20;;;;;;;25.56;28.94;101178.53;1613345;86;21093;-73
2022/06/03 13:07:34;;;;;;;4.17;1.20;;;;;;;25.57;29.64;101169.75;1612699;87;21107;-73
2022/06/03 13:10:18;;;;;;;2.08;1.22;;;;;;;25.62;28.29;101168.95;1615903;87;21033;-73
2022/06/03 13:12:49;;;;;;;3.77;1.30;;;;;;;25.65;28.85;101171.00;1611010;87;21797;-72
2022/06/03 13:15:21;;;;;;;1.82;1.20;;;;;;;25.69;28.35;101161.53;1607529;87;21253;-73
2022/06/03 13:18:10;;;;;;;3.80;1.27;;;;;;;25.76;28.33;101163.11;1607575;87;21198;-74